sensor_id;sensor_type;location;lat;lon;timestamp;P1;durP1;ratioP1;P2;durP2;ratioP2
17631;SDS011;8934;51.194;17.150;2023-02-24T00:01:44;74.30;;;34.15;;
17631;SDS011;8934;51.194;17.150;2023-02-24T00:04:37;78.07;;;36.45;;
17631;SDS011;8934;51.194;17.150;2023-02-24T00:07:25;81.68;;;36.67;;
17631;SDS011;8934;51.194;17.150;2023-02-24T00:10:14;78.63;;;37.50;;
17631;SDS011;8934;51.194;17.150;2023-02-24T00:13:04;75.22;;;34.05;;
17631;SDS011;8934;51.194;17.150;2023-02-24T00:15:59;81.53;;;36.95;;
17631;SDS011;8934;51.194;17.150;2023-02-24T00:18:49;77.63;;;36.28;;
17631;SDS011;8934;51.194;17.150;2023-02-24T00:21:37;72.88;;;34.83;;
17631;SDS011;8934;51.194;17.150;2023-02-24T00:24:25;73.03;;;36.63;;
17631;SDS011;8934;51.194;17.150;2023-02-24T00:27:13;69.72;;;34.90;;
17631;SDS011;8934;51.194;17.150;2023-02-24T00:30:01;62.17;;;33.03;;
17631;SDS011;8934;51.194;17.150;2023-02-24T00:32:51;69.68;;;34.75;;
17631;SDS011;8934;51.194;17.150;2023-02-24T00:35:42;78.30;;;35.60;;
17631;SDS011;8934;51.194;17.150;2023-02-24T00:38:30;73.05;;;36.30;;
17631;SDS011;8934;51.194;17.150;2023-02-24T00:41:21;67.90;;;34.08;;
17631;SDS011;8934;51.194;17.150;2023-02-24T00:44:13;73.13;;;34.25;;
17631;SDS011;8934;51.194;17.150;2023-02-24T00:47:01;71.70;;;35.53;;
17631;SDS011;8934;51.194;17.150;2023-02-24T00:49:51;78.28;;;36.30;;
17631;SDS011;8934;51.194;17.150;2023-02-24T00:52:40;68.68;;;33.13;;
17631;SDS011;8934;51.194;17.150;2023-02-24T00:55:28;76.50;;;37.15;;
17631;SDS011;8934;51.194;17.150;2023-02-24T00:58:21;74.32;;;37.17;;
17631;SDS011;8934;51.194;17.150;2023-02-24T01:01:11;66.75;;;33.00;;
17631;SDS011;8934;51.194;17.150;2023-02-24T01:03:59;67.53;;;33.70;;
17631;SDS011;8934;51.194;17.150;2023-02-24T01:06:53;69.78;;;33.78;;
17631;SDS011;8934;51.194;17.150;2023-02-24T01:09:48;68.72;;;31.63;;
17631;SDS011;8934;51.194;17.150;2023-02-24T01:12:36;59.63;;;30.40;;
17631;SDS011;8934;51.194;17.150;2023-02-24T01:15:23;67.32;;;32.33;;
17631;SDS011;8934;51.194;17.150;2023-02-24T01:18:11;74.20;;;35.13;;
17631;SDS011;8934;51.194;17.150;2023-02-24T01:20:58;68.25;;;31.98;;
17631;SDS011;8934;51.194;17.150;2023-02-24T01:23:46;63.05;;;30.77;;
17631;SDS011;8934;51.194;17.150;2023-02-24T01:26:36;57.72;;;30.05;;
17631;SDS011;8934;51.194;17.150;2023-02-24T01:29:24;63.00;;;30.45;;
17631;SDS011;8934;51.194;17.150;2023-02-24T01:32:13;73.93;;;32.75;;
17631;SDS011;8934;51.194;17.150;2023-02-24T01:35:03;73.45;;;33.75;;
17631;SDS011;8934;51.194;17.150;2023-02-24T01:37:52;76.15;;;35.28;;
17631;SDS011;8934;51.194;17.150;2023-02-24T01:40:39;74.15;;;36.47;;
17631;SDS011;8934;51.194;17.150;2023-02-24T01:43:28;75.43;;;36.10;;
17631;SDS011;8934;51.194;17.150;2023-02-24T01:46:15;72.45;;;36.95;;
17631;SDS011;8934;51.194;17.150;2023-02-24T01:49:08;79.47;;;35.70;;
17631;SDS011;8934;51.194;17.150;2023-02-24T01:52:03;74.18;;;35.42;;
17631;SDS011;8934;51.194;17.150;2023-02-24T01:54:55;72.55;;;34.85;;
17631;SDS011;8934;51.194;17.150;2023-02-24T01:57:48;66.35;;;32.00;;
17631;SDS011;8934;51.194;17.150;2023-02-24T02:00:39;67.63;;;31.40;;
17631;SDS011;8934;51.194;17.150;2023-02-24T02:03:32;68.88;;;32.28;;
17631;SDS011;8934;51.194;17.150;2023-02-24T02:06:22;76.80;;;36.33;;
17631;SDS011;8934;51.194;17.150;2023-02-24T02:09:10;80.53;;;34.88;;
17631;SDS011;8934;51.194;17.150;2023-02-24T02:12:01;73.22;;;37.10;;
17631;SDS011;8934;51.194;17.150;2023-02-24T02:14:49;79.38;;;35.65;;
17631;SDS011;8934;51.194;17.150;2023-02-24T02:17:42;75.85;;;36.08;;
17631;SDS011;8934;51.194;17.150;2023-02-24T02:24:10;59.90;;;29.48;;
17631;SDS011;8934;51.194;17.150;2023-02-24T02:27:18;64.53;;;32.05;;
17631;SDS011;8934;51.194;17.150;2023-02-24T02:30:25;60.30;;;30.33;;
17631;SDS011;8934;51.194;17.150;2023-02-24T02:33:45;61.85;;;29.98;;
17631;SDS011;8934;51.194;17.150;2023-02-24T02:36:55;71.07;;;31.67;;
17631;SDS011;8934;51.194;17.150;2023-02-24T02:39:50;64.20;;;30.27;;
17631;SDS011;8934;51.194;17.150;2023-02-24T02:42:48;67.30;;;31.77;;
17631;SDS011;8934;51.194;17.150;2023-02-24T02:45:39;62.00;;;31.40;;
17631;SDS011;8934;51.194;17.150;2023-02-24T02:48:33;63.97;;;32.10;;
17631;SDS011;8934;51.194;17.150;2023-02-24T02:51:27;68.70;;;31.58;;
17631;SDS011;8934;51.194;17.150;2023-02-24T02:54:24;73.15;;;33.03;;
17631;SDS011;8934;51.194;17.150;2023-02-24T02:57:17;59.28;;;30.52;;
17631;SDS011;8934;51.194;17.150;2023-02-24T03:00:10;60.53;;;30.27;;
17631;SDS011;8934;51.194;17.150;2023-02-24T03:06:00;56.47;;;27.70;;
17631;SDS011;8934;51.194;17.150;2023-02-24T03:08:53;57.85;;;28.83;;
17631;SDS011;8934;51.194;17.150;2023-02-24T03:11:46;59.85;;;27.80;;
17631;SDS011;8934;51.194;17.150;2023-02-24T03:14:38;56.50;;;27.92;;
17631;SDS011;8934;51.194;17.150;2023-02-24T03:17:29;49.85;;;26.15;;
17631;SDS011;8934;51.194;17.150;2023-02-24T03:20:27;54.05;;;26.52;;
17631;SDS011;8934;51.194;17.150;2023-02-24T03:23:18;50.10;;;24.80;;
17631;SDS011;8934;51.194;17.150;2023-02-24T03:26:14;57.72;;;26.30;;
17631;SDS011;8934;51.194;17.150;2023-02-24T03:29:10;52.30;;;25.52;;
17631;SDS011;8934;51.194;17.150;2023-02-24T03:32:04;57.55;;;26.50;;
17631;SDS011;8934;51.194;17.150;2023-02-24T03:34:57;49.70;;;24.77;;
17631;SDS011;8934;51.194;17.150;2023-02-24T03:37:51;54.08;;;25.83;;
17631;SDS011;8934;51.194;17.150;2023-02-24T03:40:40;51.88;;;27.13;;
17631;SDS011;8934;51.194;17.150;2023-02-24T03:43:36;60.50;;;29.38;;
17631;SDS011;8934;51.194;17.150;2023-02-24T03:46:27;55.95;;;27.20;;
17631;SDS011;8934;51.194;17.150;2023-02-24T03:49:18;64.30;;;29.33;;
17631;SDS011;8934;51.194;17.150;2023-02-24T03:52:08;60.35;;;27.63;;
17631;SDS011;8934;51.194;17.150;2023-02-24T03:55:15;62.92;;;30.45;;
17631;SDS011;8934;51.194;17.150;2023-02-24T03:58:10;66.97;;;31.02;;
17631;SDS011;8934;51.194;17.150;2023-02-24T04:01:07;72.85;;;33.80;;
17631;SDS011;8934;51.194;17.150;2023-02-24T04:03:59;69.32;;;32.92;;
17631;SDS011;8934;51.194;17.150;2023-02-24T04:07:11;71.55;;;31.50;;
17631;SDS011;8934;51.194;17.150;2023-02-24T04:10:02;81.72;;;35.75;;
17631;SDS011;8934;51.194;17.150;2023-02-24T04:12:59;83.43;;;34.03;;
17631;SDS011;8934;51.194;17.150;2023-02-24T04:15:53;77.90;;;32.08;;
17631;SDS011;8934;51.194;17.150;2023-02-24T04:18:49;76.20;;;34.75;;
17631;SDS011;8934;51.194;17.150;2023-02-24T04:21:37;82.63;;;34.75;;
17631;SDS011;8934;51.194;17.150;2023-02-24T04:24:33;71.13;;;32.80;;
17631;SDS011;8934;51.194;17.150;2023-02-24T04:27:23;77.40;;;33.58;;
17631;SDS011;8934;51.194;17.150;2023-02-24T04:30:21;79.53;;;35.25;;
17631;SDS011;8934;51.194;17.150;2023-02-24T04:33:11;70.57;;;32.88;;
17631;SDS011;8934;51.194;17.150;2023-02-24T04:36:00;72.07;;;33.03;;
17631;SDS011;8934;51.194;17.150;2023-02-24T04:38:53;70.22;;;32.75;;
17631;SDS011;8934;51.194;17.150;2023-02-24T04:41:41;82.63;;;35.40;;
17631;SDS011;8934;51.194;17.150;2023-02-24T04:44:28;76.75;;;32.50;;
17631;SDS011;8934;51.194;17.150;2023-02-24T04:47:17;79.93;;;34.10;;
17631;SDS011;8934;51.194;17.150;2023-02-24T04:50:06;82.93;;;34.63;;
17631;SDS011;8934;51.194;17.150;2023-02-24T04:52:58;77.32;;;34.20;;
17631;SDS011;8934;51.194;17.150;2023-02-24T04:55:47;77.00;;;34.08;;
17631;SDS011;8934;51.194;17.150;2023-02-24T04:58:34;80.00;;;32.25;;
17631;SDS011;8934;51.194;17.150;2023-02-24T05:01:24;82.47;;;33.38;;
17631;SDS011;8934;51.194;17.150;2023-02-24T05:04:12;76.28;;;32.40;;
17631;SDS011;8934;51.194;17.150;2023-02-24T05:07:00;75.93;;;34.10;;
17631;SDS011;8934;51.194;17.150;2023-02-24T05:09:49;74.47;;;32.97;;
17631;SDS011;8934;51.194;17.150;2023-02-24T05:12:39;74.80;;;32.90;;
17631;SDS011;8934;51.194;17.150;2023-02-24T05:15:28;73.07;;;33.55;;
17631;SDS011;8934;51.194;17.150;2023-02-24T05:18:17;73.43;;;31.80;;
17631;SDS011;8934;51.194;17.150;2023-02-24T05:21:09;78.00;;;33.55;;
17631;SDS011;8934;51.194;17.150;2023-02-24T05:24:15;73.95;;;31.17;;
17631;SDS011;8934;51.194;17.150;2023-02-24T05:27:04;70.28;;;33.80;;
17631;SDS011;8934;51.194;17.150;2023-02-24T05:29:53;80.13;;;31.95;;
17631;SDS011;8934;51.194;17.150;2023-02-24T05:32:41;77.00;;;31.83;;
17631;SDS011;8934;51.194;17.150;2023-02-24T05:35:29;80.43;;;34.33;;
17631;SDS011;8934;51.194;17.150;2023-02-24T05:38:17;80.97;;;32.92;;
17631;SDS011;8934;51.194;17.150;2023-02-24T05:41:06;71.00;;;31.98;;
17631;SDS011;8934;51.194;17.150;2023-02-24T05:44:01;64.82;;;29.90;;
17631;SDS011;8934;51.194;17.150;2023-02-24T05:46:53;63.80;;;30.30;;
17631;SDS011;8934;51.194;17.150;2023-02-24T05:49:44;71.72;;;32.08;;
17631;SDS011;8934;51.194;17.150;2023-02-24T05:52:32;72.85;;;31.42;;
17631;SDS011;8934;51.194;17.150;2023-02-24T05:55:21;66.82;;;29.30;;
17631;SDS011;8934;51.194;17.150;2023-02-24T05:58:09;62.22;;;27.75;;
17631;SDS011;8934;51.194;17.150;2023-02-24T06:00:58;60.35;;;29.85;;
17631;SDS011;8934;51.194;17.150;2023-02-24T06:03:51;53.95;;;26.48;;
17631;SDS011;8934;51.194;17.150;2023-02-24T06:06:40;56.35;;;22.88;;
17631;SDS011;8934;51.194;17.150;2023-02-24T06:09:28;39.95;;;19.58;;
17631;SDS011;8934;51.194;17.150;2023-02-24T06:12:16;52.83;;;24.05;;
17631;SDS011;8934;51.194;17.150;2023-02-24T06:15:04;48.55;;;20.73;;
17631;SDS011;8934;51.194;17.150;2023-02-24T06:17:54;44.15;;;19.88;;
17631;SDS011;8934;51.194;17.150;2023-02-24T06:20:43;47.58;;;18.98;;
17631;SDS011;8934;51.194;17.150;2023-02-24T06:23:35;41.35;;;19.80;;
17631;SDS011;8934;51.194;17.150;2023-02-24T06:26:23;47.53;;;20.13;;
17631;SDS011;8934;51.194;17.150;2023-02-24T06:29:15;41.70;;;17.85;;
17631;SDS011;8934;51.194;17.150;2023-02-24T06:32:04;43.85;;;18.40;;
17631;SDS011;8934;51.194;17.150;2023-02-24T06:34:55;47.85;;;18.83;;
17631;SDS011;8934;51.194;17.150;2023-02-24T06:37:44;50.55;;;21.75;;
17631;SDS011;8934;51.194;17.150;2023-02-24T06:40:31;40.28;;;17.95;;
17631;SDS011;8934;51.194;17.150;2023-02-24T06:43:19;48.45;;;19.63;;
17631;SDS011;8934;51.194;17.150;2023-02-24T06:46:06;49.85;;;18.75;;
17631;SDS011;8934;51.194;17.150;2023-02-24T06:48:54;45.88;;;20.20;;
17631;SDS011;8934;51.194;17.150;2023-02-24T06:51:44;52.30;;;20.70;;
17631;SDS011;8934;51.194;17.150;2023-02-24T06:54:33;46.78;;;18.13;;
17631;SDS011;8934;51.194;17.150;2023-02-24T06:57:21;46.13;;;19.60;;
17631;SDS011;8934;51.194;17.150;2023-02-24T07:00:09;37.47;;;18.40;;
17631;SDS011;8934;51.194;17.150;2023-02-24T07:03:02;43.25;;;18.92;;
17631;SDS011;8934;51.194;17.150;2023-02-24T07:05:59;46.45;;;19.48;;
17631;SDS011;8934;51.194;17.150;2023-02-24T07:09:07;45.00;;;17.90;;
17631;SDS011;8934;51.194;17.150;2023-02-24T07:11:57;42.30;;;17.83;;
17631;SDS011;8934;51.194;17.150;2023-02-24T07:14:47;37.38;;;17.23;;
17631;SDS011;8934;51.194;17.150;2023-02-24T07:17:35;44.83;;;17.52;;
17631;SDS011;8934;51.194;17.150;2023-02-24T07:20:22;40.78;;;17.25;;
17631;SDS011;8934;51.194;17.150;2023-02-24T07:23:11;45.28;;;17.27;;
17631;SDS011;8934;51.194;17.150;2023-02-24T07:26:01;37.88;;;16.40;;
17631;SDS011;8934;51.194;17.150;2023-02-24T07:28:55;35.83;;;16.27;;
17631;SDS011;8934;51.194;17.150;2023-02-24T07:31:42;33.88;;;15.90;;
17631;SDS011;8934;51.194;17.150;2023-02-24T07:34:30;34.03;;;16.48;;
17631;SDS011;8934;51.194;17.150;2023-02-24T07:37:18;35.28;;;15.55;;
17631;SDS011;8934;51.194;17.150;2023-02-24T07:40:08;30.73;;;13.88;;
17631;SDS011;8934;51.194;17.150;2023-02-24T07:43:03;42.67;;;15.40;;
17631;SDS011;8934;51.194;17.150;2023-02-24T07:45:51;35.47;;;14.00;;
17631;SDS011;8934;51.194;17.150;2023-02-24T07:48:39;32.00;;;12.70;;
17631;SDS011;8934;51.194;17.150;2023-02-24T07:51:27;32.53;;;13.80;;
17631;SDS011;8934;51.194;17.150;2023-02-24T07:54:15;29.63;;;13.80;;
17631;SDS011;8934;51.194;17.150;2023-02-24T07:57:04;28.33;;;13.65;;
17631;SDS011;8934;51.194;17.150;2023-02-24T08:00:00;34.40;;;13.43;;
17631;SDS011;8934;51.194;17.150;2023-02-24T08:03:01;40.22;;;15.95;;
17631;SDS011;8934;51.194;17.150;2023-02-24T08:05:49;33.88;;;15.65;;
17631;SDS011;8934;51.194;17.150;2023-02-24T08:08:38;29.05;;;14.05;;
17631;SDS011;8934;51.194;17.150;2023-02-24T08:11:42;28.35;;;13.15;;
17631;SDS011;8934;51.194;17.150;2023-02-24T08:14:32;36.72;;;13.05;;
17631;SDS011;8934;51.194;17.150;2023-02-24T08:17:22;30.70;;;12.73;;
17631;SDS011;8934;51.194;17.150;2023-02-24T08:20:11;25.65;;;12.68;;
17631;SDS011;8934;51.194;17.150;2023-02-24T08:23:09;31.65;;;12.30;;
17631;SDS011;8934;51.194;17.150;2023-02-24T08:26:00;28.50;;;11.93;;
17631;SDS011;8934;51.194;17.150;2023-02-24T08:28:57;27.98;;;12.05;;
17631;SDS011;8934;51.194;17.150;2023-02-24T08:31:45;29.85;;;11.93;;
17631;SDS011;8934;51.194;17.150;2023-02-24T08:34:37;26.27;;;11.88;;
17631;SDS011;8934;51.194;17.150;2023-02-24T08:37:25;27.83;;;10.82;;
17631;SDS011;8934;51.194;17.150;2023-02-24T08:40:19;24.20;;;10.50;;
17631;SDS011;8934;51.194;17.150;2023-02-24T08:43:36;33.78;;;13.43;;
17631;SDS011;8934;51.194;17.150;2023-02-24T08:46:25;32.45;;;12.60;;
17631;SDS011;8934;51.194;17.150;2023-02-24T08:49:22;26.83;;;13.38;;
17631;SDS011;8934;51.194;17.150;2023-02-24T08:52:11;30.13;;;12.27;;
17631;SDS011;8934;51.194;17.150;2023-02-24T08:54:59;30.58;;;13.75;;
17631;SDS011;8934;51.194;17.150;2023-02-24T08:57:46;25.33;;;12.27;;
17631;SDS011;8934;51.194;17.150;2023-02-24T09:00:38;30.20;;;13.40;;
17631;SDS011;8934;51.194;17.150;2023-02-24T09:03:33;33.65;;;15.13;;
17631;SDS011;8934;51.194;17.150;2023-02-24T09:06:22;40.45;;;15.00;;
17631;SDS011;8934;51.194;17.150;2023-02-24T09:09:15;30.50;;;13.88;;
17631;SDS011;8934;51.194;17.150;2023-02-24T09:12:06;34.10;;;13.60;;
17631;SDS011;8934;51.194;17.150;2023-02-24T09:14:57;35.58;;;15.35;;
17631;SDS011;8934;51.194;17.150;2023-02-24T09:17:49;38.10;;;14.45;;
17631;SDS011;8934;51.194;17.150;2023-02-24T09:20:45;34.17;;;13.95;;
17631;SDS011;8934;51.194;17.150;2023-02-24T09:24:00;33.05;;;13.80;;
17631;SDS011;8934;51.194;17.150;2023-02-24T09:26:53;31.95;;;13.73;;
17631;SDS011;8934;51.194;17.150;2023-02-24T09:29:43;26.58;;;11.77;;
17631;SDS011;8934;51.194;17.150;2023-02-24T09:32:34;28.23;;;11.30;;
17631;SDS011;8934;51.194;17.150;2023-02-24T09:35:22;30.52;;;12.35;;
17631;SDS011;8934;51.194;17.150;2023-02-24T09:38:16;24.88;;;10.52;;
17631;SDS011;8934;51.194;17.150;2023-02-24T09:41:06;18.55;;;9.18;;
17631;SDS011;8934;51.194;17.150;2023-02-24T09:44:16;20.80;;;9.18;;
17631;SDS011;8934;51.194;17.150;2023-02-24T09:47:11;24.45;;;9.02;;
17631;SDS011;8934;51.194;17.150;2023-02-24T09:50:05;18.77;;;8.98;;
17631;SDS011;8934;51.194;17.150;2023-02-24T09:53:23;17.45;;;8.10;;
17631;SDS011;8934;51.194;17.150;2023-02-24T09:56:15;20.00;;;8.50;;
17631;SDS011;8934;51.194;17.150;2023-02-24T09:59:10;19.25;;;8.38;;
17631;SDS011;8934;51.194;17.150;2023-02-24T10:02:17;15.57;;;7.70;;
17631;SDS011;8934;51.194;17.150;2023-02-24T10:08:12;15.40;;;6.85;;
17631;SDS011;8934;51.194;17.150;2023-02-24T10:11:10;15.43;;;6.22;;
17631;SDS011;8934;51.194;17.150;2023-02-24T10:14:01;16.67;;;6.88;;
17631;SDS011;8934;51.194;17.150;2023-02-24T10:16:53;14.07;;;6.32;;
17631;SDS011;8934;51.194;17.150;2023-02-24T10:20:03;11.88;;;5.82;;
17631;SDS011;8934;51.194;17.150;2023-02-24T10:23:14;18.58;;;6.05;;
17631;SDS011;8934;51.194;17.150;2023-02-24T10:26:15;12.85;;;5.60;;
17631;SDS011;8934;51.194;17.150;2023-02-24T10:29:19;13.10;;;5.60;;
17631;SDS011;8934;51.194;17.150;2023-02-24T10:32:17;12.52;;;6.07;;
17631;SDS011;8934;51.194;17.150;2023-02-24T10:35:13;11.00;;;5.10;;
17631;SDS011;8934;51.194;17.150;2023-02-24T10:38:02;14.27;;;5.97;;
17631;SDS011;8934;51.194;17.150;2023-02-24T10:40:52;10.07;;;4.35;;
17631;SDS011;8934;51.194;17.150;2023-02-24T10:43:51;12.20;;;4.45;;
17631;SDS011;8934;51.194;17.150;2023-02-24T10:46:41;9.60;;;4.43;;
17631;SDS011;8934;51.194;17.150;2023-02-24T10:49:29;7.10;;;3.88;;
17631;SDS011;8934;51.194;17.150;2023-02-24T10:52:19;6.80;;;2.70;;
17631;SDS011;8934;51.194;17.150;2023-02-24T10:55:23;8.13;;;4.07;;
17631;SDS011;8934;51.194;17.150;2023-02-24T10:58:36;8.57;;;3.60;;
17631;SDS011;8934;51.194;17.150;2023-02-24T11:01:30;7.57;;;3.85;;
17631;SDS011;8934;51.194;17.150;2023-02-24T11:04:39;5.47;;;3.10;;
17631;SDS011;8934;51.194;17.150;2023-02-24T11:08:00;6.32;;;2.83;;
17631;SDS011;8934;51.194;17.150;2023-02-24T11:10:54;8.25;;;3.17;;
17631;SDS011;8934;51.194;17.150;2023-02-24T11:13:51;9.23;;;3.33;;
17631;SDS011;8934;51.194;17.150;2023-02-24T11:16:58;7.17;;;3.13;;
17631;SDS011;8934;51.194;17.150;2023-02-24T11:20:02;7.45;;;3.13;;
17631;SDS011;8934;51.194;17.150;2023-02-24T11:22:56;8.23;;;3.25;;
17631;SDS011;8934;51.194;17.150;2023-02-24T11:25:45;9.43;;;4.13;;
17631;SDS011;8934;51.194;17.150;2023-02-24T11:31:52;6.53;;;2.95;;
17631;SDS011;8934;51.194;17.150;2023-02-24T11:34:51;6.60;;;3.22;;
17631;SDS011;8934;51.194;17.150;2023-02-24T11:37:44;5.72;;;3.25;;
17631;SDS011;8934;51.194;17.150;2023-02-24T11:40:42;8.50;;;3.70;;
17631;SDS011;8934;51.194;17.150;2023-02-24T11:43:35;6.75;;;2.50;;
17631;SDS011;8934;51.194;17.150;2023-02-24T11:46:31;7.25;;;2.75;;
17631;SDS011;8934;51.194;17.150;2023-02-24T11:49:25;9.60;;;3.53;;
17631;SDS011;8934;51.194;17.150;2023-02-24T11:52:17;9.48;;;3.05;;
17631;SDS011;8934;51.194;17.150;2023-02-24T11:55:13;7.15;;;2.80;;
17631;SDS011;8934;51.194;17.150;2023-02-24T11:58:15;12.90;;;4.03;;
17631;SDS011;8934;51.194;17.150;2023-02-24T12:01:09;6.68;;;3.50;;
17631;SDS011;8934;51.194;17.150;2023-02-24T12:04:04;8.90;;;4.00;;
17631;SDS011;8934;51.194;17.150;2023-02-24T12:09:48;6.97;;;4.03;;
17631;SDS011;8934;51.194;17.150;2023-02-24T12:12:50;8.77;;;3.88;;
17631;SDS011;8934;51.194;17.150;2023-02-24T12:15:46;7.80;;;4.43;;
17631;SDS011;8934;51.194;17.150;2023-02-24T12:18:42;10.35;;;3.90;;
17631;SDS011;8934;51.194;17.150;2023-02-24T12:21:33;8.38;;;3.50;;
17631;SDS011;8934;51.194;17.150;2023-02-24T12:24:24;11.60;;;5.35;;
17631;SDS011;8934;51.194;17.150;2023-02-24T12:27:14;10.07;;;6.25;;
17631;SDS011;8934;51.194;17.150;2023-02-24T12:30:09;14.32;;;7.28;;
17631;SDS011;8934;51.194;17.150;2023-02-24T12:33:33;11.43;;;6.90;;
17631;SDS011;8934;51.194;17.150;2023-02-24T12:36:42;13.30;;;7.38;;
17631;SDS011;8934;51.194;17.150;2023-02-24T12:39:46;15.05;;;7.90;;
17631;SDS011;8934;51.194;17.150;2023-02-24T12:42:42;13.48;;;7.25;;
17631;SDS011;8934;51.194;17.150;2023-02-24T12:45:39;12.00;;;7.80;;
17631;SDS011;8934;51.194;17.150;2023-02-24T12:48:46;11.32;;;7.60;;
17631;SDS011;8934;51.194;17.150;2023-02-24T12:52:00;13.05;;;7.57;;
17631;SDS011;8934;51.194;17.150;2023-02-24T12:54:57;12.13;;;7.03;;
17631;SDS011;8934;51.194;17.150;2023-02-24T12:57:55;12.10;;;7.78;;
17631;SDS011;8934;51.194;17.150;2023-02-24T13:00:50;13.93;;;8.55;;
17631;SDS011;8934;51.194;17.150;2023-02-24T13:03:56;12.15;;;7.85;;
17631;SDS011;8934;51.194;17.150;2023-02-24T13:06:55;14.10;;;8.88;;
17631;SDS011;8934;51.194;17.150;2023-02-24T13:09:57;15.02;;;8.52;;
17631;SDS011;8934;51.194;17.150;2023-02-24T13:12:53;13.38;;;7.72;;
17631;SDS011;8934;51.194;17.150;2023-02-24T13:15:48;11.88;;;7.63;;
17631;SDS011;8934;51.194;17.150;2023-02-24T13:18:37;13.18;;;8.35;;
17631;SDS011;8934;51.194;17.150;2023-02-24T13:21:26;15.60;;;8.55;;
17631;SDS011;8934;51.194;17.150;2023-02-24T13:24:16;12.38;;;8.02;;
17631;SDS011;8934;51.194;17.150;2023-02-24T13:27:18;12.70;;;8.13;;
17631;SDS011;8934;51.194;17.150;2023-02-24T13:30:23;13.90;;;7.70;;
17631;SDS011;8934;51.194;17.150;2023-02-24T13:33:21;11.05;;;7.90;;
17631;SDS011;8934;51.194;17.150;2023-02-24T13:36:15;10.00;;;6.93;;
17631;SDS011;8934;51.194;17.150;2023-02-24T13:39:19;9.82;;;6.22;;
17631;SDS011;8934;51.194;17.150;2023-02-24T13:42:19;12.13;;;6.82;;
17631;SDS011;8934;51.194;17.150;2023-02-24T13:45:17;9.55;;;6.00;;
17631;SDS011;8934;51.194;17.150;2023-02-24T13:51:51;7.97;;;5.90;;
17631;SDS011;8934;51.194;17.150;2023-02-24T13:54:55;9.80;;;5.20;;
17631;SDS011;8934;51.194;17.150;2023-02-24T13:58:04;7.60;;;5.00;;
17631;SDS011;8934;51.194;17.150;2023-02-24T14:01:06;5.95;;;3.92;;
17631;SDS011;8934;51.194;17.150;2023-02-24T14:04:03;7.55;;;4.50;;
17631;SDS011;8934;51.194;17.150;2023-02-24T14:06:59;11.73;;;6.38;;
17631;SDS011;8934;51.194;17.150;2023-02-24T14:09:50;13.68;;;8.43;;
17631;SDS011;8934;51.194;17.150;2023-02-24T14:12:41;13.57;;;9.57;;
17631;SDS011;8934;51.194;17.150;2023-02-24T14:15:30;13.40;;;7.05;;
17631;SDS011;8934;51.194;17.150;2023-02-24T14:18:20;15.68;;;8.13;;
17631;SDS011;8934;51.194;17.150;2023-02-24T14:21:16;13.43;;;8.02;;
17631;SDS011;8934;51.194;17.150;2023-02-24T14:24:09;10.90;;;7.00;;
17631;SDS011;8934;51.194;17.150;2023-02-24T14:26:58;13.77;;;7.32;;
17631;SDS011;8934;51.194;17.150;2023-02-24T14:29:50;12.70;;;7.45;;
17631;SDS011;8934;51.194;17.150;2023-02-24T14:32:38;13.05;;;8.15;;
17631;SDS011;8934;51.194;17.150;2023-02-24T14:35:31;11.70;;;6.88;;
17631;SDS011;8934;51.194;17.150;2023-02-24T14:38:27;12.52;;;6.70;;
17631;SDS011;8934;51.194;17.150;2023-02-24T14:41:18;13.25;;;6.50;;
17631;SDS011;8934;51.194;17.150;2023-02-24T14:44:13;11.93;;;7.47;;
17631;SDS011;8934;51.194;17.150;2023-02-24T14:47:07;7.78;;;4.20;;
17631;SDS011;8934;51.194;17.150;2023-02-24T14:49:57;9.77;;;4.55;;
17631;SDS011;8934;51.194;17.150;2023-02-24T14:52:49;6.65;;;3.40;;
17631;SDS011;8934;51.194;17.150;2023-02-24T14:55:39;5.57;;;3.38;;
17631;SDS011;8934;51.194;17.150;2023-02-24T14:58:29;7.40;;;3.35;;
17631;SDS011;8934;51.194;17.150;2023-02-24T15:01:23;10.45;;;4.25;;
17631;SDS011;8934;51.194;17.150;2023-02-24T15:04:20;6.45;;;2.80;;
17631;SDS011;8934;51.194;17.150;2023-02-24T15:07:17;4.45;;;2.92;;
17631;SDS011;8934;51.194;17.150;2023-02-24T15:10:13;5.68;;;2.90;;
17631;SDS011;8934;51.194;17.150;2023-02-24T15:13:08;4.03;;;2.75;;
17631;SDS011;8934;51.194;17.150;2023-02-24T15:16:01;6.82;;;3.47;;
17631;SDS011;8934;51.194;17.150;2023-02-24T15:18:52;7.18;;;3.30;;
17631;SDS011;8934;51.194;17.150;2023-02-24T15:21:46;7.03;;;3.53;;
17631;SDS011;8934;51.194;17.150;2023-02-24T15:24:34;6.15;;;4.40;;
17631;SDS011;8934;51.194;17.150;2023-02-24T15:27:23;8.05;;;3.25;;
17631;SDS011;8934;51.194;17.150;2023-02-24T15:30:24;5.78;;;3.13;;
17631;SDS011;8934;51.194;17.150;2023-02-24T15:33:15;6.05;;;3.63;;
17631;SDS011;8934;51.194;17.150;2023-02-24T15:36:08;8.30;;;3.50;;
17631;SDS011;8934;51.194;17.150;2023-02-24T15:38:59;7.15;;;3.47;;
17631;SDS011;8934;51.194;17.150;2023-02-24T15:41:50;7.65;;;4.30;;
17631;SDS011;8934;51.194;17.150;2023-02-24T15:44:38;10.82;;;4.50;;
17631;SDS011;8934;51.194;17.150;2023-02-24T15:47:39;9.10;;;4.55;;
17631;SDS011;8934;51.194;17.150;2023-02-24T15:50:28;6.10;;;4.15;;
17631;SDS011;8934;51.194;17.150;2023-02-24T15:53:17;7.53;;;4.65;;
17631;SDS011;8934;51.194;17.150;2023-02-24T15:56:06;7.00;;;4.47;;
17631;SDS011;8934;51.194;17.150;2023-02-24T15:58:54;7.10;;;4.28;;
17631;SDS011;8934;51.194;17.150;2023-02-24T16:01:43;8.15;;;3.97;;
17631;SDS011;8934;51.194;17.150;2023-02-24T16:04:31;11.18;;;4.65;;
17631;SDS011;8934;51.194;17.150;2023-02-24T16:07:19;8.80;;;4.93;;
17631;SDS011;8934;51.194;17.150;2023-02-24T16:10:13;8.65;;;4.85;;
17631;SDS011;8934;51.194;17.150;2023-02-24T16:13:07;8.35;;;4.03;;
17631;SDS011;8934;51.194;17.150;2023-02-24T16:16:03;7.38;;;4.18;;
17631;SDS011;8934;51.194;17.150;2023-02-24T16:18:52;7.75;;;4.75;;
17631;SDS011;8934;51.194;17.150;2023-02-24T16:21:40;9.02;;;4.63;;
17631;SDS011;8934;51.194;17.150;2023-02-24T16:24:28;6.25;;;4.68;;
17631;SDS011;8934;51.194;17.150;2023-02-24T16:27:16;11.15;;;5.55;;
17631;SDS011;8934;51.194;17.150;2023-02-24T16:30:09;8.75;;;5.60;;
17631;SDS011;8934;51.194;17.150;2023-02-24T16:33:05;9.55;;;5.22;;
17631;SDS011;8934;51.194;17.150;2023-02-24T16:35:56;10.02;;;5.95;;
17631;SDS011;8934;51.194;17.150;2023-02-24T16:38:44;13.30;;;6.45;;
17631;SDS011;8934;51.194;17.150;2023-02-24T16:41:35;11.40;;;5.53;;
17631;SDS011;8934;51.194;17.150;2023-02-24T16:44:23;9.10;;;5.90;;
17631;SDS011;8934;51.194;17.150;2023-02-24T16:47:13;9.32;;;5.13;;
17631;SDS011;8934;51.194;17.150;2023-02-24T16:50:03;9.20;;;5.43;;
17631;SDS011;8934;51.194;17.150;2023-02-24T16:52:51;9.55;;;5.03;;
17631;SDS011;8934;51.194;17.150;2023-02-24T16:55:39;8.20;;;4.45;;
17631;SDS011;8934;51.194;17.150;2023-02-24T16:58:28;8.93;;;5.03;;
17631;SDS011;8934;51.194;17.150;2023-02-24T17:01:17;7.10;;;4.47;;
17631;SDS011;8934;51.194;17.150;2023-02-24T17:04:07;9.32;;;5.70;;
17631;SDS011;8934;51.194;17.150;2023-02-24T17:06:56;9.13;;;5.60;;
17631;SDS011;8934;51.194;17.150;2023-02-24T17:09:43;8.45;;;4.88;;
17631;SDS011;8934;51.194;17.150;2023-02-24T17:12:31;9.13;;;5.22;;
17631;SDS011;8934;51.194;17.150;2023-02-24T17:15:20;8.60;;;5.13;;
17631;SDS011;8934;51.194;17.150;2023-02-24T17:18:09;8.95;;;5.28;;
17631;SDS011;8934;51.194;17.150;2023-02-24T17:20:58;10.40;;;6.10;;
17631;SDS011;8934;51.194;17.150;2023-02-24T17:23:46;11.38;;;5.53;;